sensor_id;sensor_type;location;lat;lon;timestamp;P1;durP1;ratioP1;P2;durP2;ratioP2
65009;SDS011;51556;50.002;22.014;2023-04-15T16:54:13;18.30;;;7.60;;
65009;SDS011;51556;50.002;22.014;2023-04-15T16:56:38;10.30;;;5.60;;
65009;SDS011;51556;50.002;22.014;2023-04-15T16:59:04;26.90;;;6.00;;
65009;SDS011;51556;50.002;22.014;2023-04-15T17:01:29;21.50;;;11.70;;
65009;SDS011;51556;50.002;22.014;2023-04-15T17:03:55;15.80;;;8.70;;
65009;SDS011;51556;50.002;22.014;2023-04-15T17:06:20;12.70;;;6.80;;
65009;SDS011;51556;50.002;22.014;2023-04-15T17:08:46;14.00;;;6.60;;
65009;SDS011;51556;50.002;22.014;2023-04-15T17:11:11;9.50;;;5.90;;
65009;SDS011;51556;50.002;22.014;2023-04-15T17:13:39;12.90;;;6.20;;
65009;SDS011;51556;50.002;22.014;2023-04-15T17:16:04;11.30;;;5.50;;
65009;SDS011;51556;50.002;22.014;2023-04-15T17:18:30;11.10;;;5.50;;
65009;SDS011;51556;50.002;22.014;2023-04-15T17:20:56;11.00;;;6.40;;
65009;SDS011;51556;50.002;22.014;2023-04-15T17:23:21;11.40;;;6.30;;
65009;SDS011;51556;50.002;22.014;2023-04-15T17:25:47;15.90;;;9.10;;
65009;SDS011;51556;50.002;22.014;2023-04-15T17:28:12;24.00;;;15.40;;
65009;SDS011;51556;50.002;22.014;2023-04-15T17:30:38;16.10;;;8.20;;
65009;SDS011;51556;50.002;22.014;2023-04-15T17:33:14;7.40;;;4.40;;
65009;SDS011;51556;50.002;22.014;2023-04-15T17:35:39;9.70;;;4.80;;
65009;SDS011;51556;50.002;22.014;2023-04-15T17:38:05;4.50;;;2.80;;
65009;SDS011;51556;50.002;22.014;2023-04-15T17:40:31;4.60;;;2.10;;
65009;SDS011;51556;50.002;22.014;2023-04-15T17:42:57;5.30;;;2.90;;
65009;SDS011;51556;50.002;22.014;2023-04-15T17:45:22;3.60;;;2.20;;
65009;SDS011;51556;50.002;22.014;2023-04-15T17:47:48;6.90;;;4.90;;
65009;SDS011;51556;50.002;22.014;2023-04-15T17:50:13;5.40;;;3.40;;
65009;SDS011;51556;50.002;22.014;2023-04-15T17:52:39;5.10;;;3.70;;
65009;SDS011;51556;50.002;22.014;2023-04-15T17:55:05;5.00;;;3.40;;
65009;SDS011;51556;50.002;22.014;2023-04-15T17:57:31;4.90;;;3.20;;
65009;SDS011;51556;50.002;22.014;2023-04-15T18:00:07;10.30;;;5.80;;
65009;SDS011;51556;50.002;22.014;2023-04-15T18:02:34;13.30;;;9.50;;
65009;SDS011;51556;50.002;22.014;2023-04-15T18:04:59;10.10;;;5.80;;
65009;SDS011;51556;50.002;22.014;2023-04-15T18:07:25;7.60;;;4.60;;
65009;SDS011;51556;50.002;22.014;2023-04-15T18:09:51;5.70;;;4.00;;
65009;SDS011;51556;50.002;22.014;2023-04-15T18:12:17;5.40;;;4.00;;
65009;SDS011;51556;50.002;22.014;2023-04-15T18:14:42;7.30;;;5.20;;
65009;SDS011;51556;50.002;22.014;2023-04-15T18:17:08;50.80;;;25.60;;
65009;SDS011;51556;50.002;22.014;2023-04-15T18:19:33;23.00;;;15.20;;
65009;SDS011;51556;50.002;22.014;2023-04-15T18:21:58;14.60;;;10.90;;
65009;SDS011;51556;50.002;22.014;2023-04-15T18:24:24;8.20;;;7.20;;
65009;SDS011;51556;50.002;22.014;2023-04-15T18:26:50;11.20;;;5.60;;
65009;SDS011;51556;50.002;22.014;2023-04-15T18:29:16;6.30;;;3.40;;
65009;SDS011;51556;50.002;22.014;2023-04-15T18:31:42;4.80;;;3.60;;
65009;SDS011;51556;50.002;22.014;2023-04-15T18:34:07;5.60;;;3.50;;
65009;SDS011;51556;50.002;22.014;2023-04-15T18:36:33;5.50;;;3.30;;
65009;SDS011;51556;50.002;22.014;2023-04-15T18:38:58;10.00;;;3.50;;
65009;SDS011;51556;50.002;22.014;2023-04-15T18:41:24;5.30;;;3.20;;
65009;SDS011;51556;50.002;22.014;2023-04-15T18:43:50;5.70;;;3.00;;
65009;SDS011;51556;50.002;22.014;2023-04-15T18:46:15;7.10;;;3.70;;
65009;SDS011;51556;50.002;22.014;2023-04-15T18:48:41;5.50;;;3.10;;
65009;SDS011;51556;50.002;22.014;2023-04-15T18:51:07;5.00;;;2.60;;
65009;SDS011;51556;50.002;22.014;2023-04-15T18:53:32;5.40;;;2.40;;
65009;SDS011;51556;50.002;22.014;2023-04-15T18:55:58;4.80;;;2.70;;
65009;SDS011;51556;50.002;22.014;2023-04-15T18:58:26;4.50;;;2.70;;
65009;SDS011;51556;50.002;22.014;2023-04-15T19:00:51;3.80;;;2.20;;
65009;SDS011;51556;50.002;22.014;2023-04-15T19:03:17;4.60;;;1.90;;
65009;SDS011;51556;50.002;22.014;2023-04-15T19:05:42;4.80;;;2.10;;
65009;SDS011;51556;50.002;22.014;2023-04-15T19:08:08;6.40;;;3.30;;
65009;SDS011;51556;50.002;22.014;2023-04-15T19:10:34;3.60;;;2.10;;
65009;SDS011;51556;50.002;22.014;2023-04-15T19:13:00;4.50;;;2.30;;
65009;SDS011;51556;50.002;22.014;2023-04-15T19:15:25;3.50;;;1.80;;
65009;SDS011;51556;50.002;22.014;2023-04-15T19:17:51;4.10;;;2.50;;
65009;SDS011;51556;50.002;22.014;2023-04-15T19:20:16;3.70;;;2.30;;
65009;SDS011;51556;50.002;22.014;2023-04-15T19:22:42;5.90;;;2.90;;
65009;SDS011;51556;50.002;22.014;2023-04-15T19:25:08;10.00;;;3.70;;
65009;SDS011;51556;50.002;22.014;2023-04-15T19:27:34;6.70;;;3.20;;
65009;SDS011;51556;50.002;22.014;2023-04-15T19:30:02;4.90;;;2.70;;
65009;SDS011;51556;50.002;22.014;2023-04-15T19:32:28;2.80;;;2.10;;
65009;SDS011;51556;50.002;22.014;2023-04-15T19:34:54;2.60;;;1.50;;
65009;SDS011;51556;50.002;22.014;2023-04-15T19:37:19;2.60;;;1.40;;
65009;SDS011;51556;50.002;22.014;2023-04-15T19:39:45;2.60;;;1.60;;
65009;SDS011;51556;50.002;22.014;2023-04-15T19:42:10;4.10;;;1.60;;
65009;SDS011;51556;50.002;22.014;2023-04-15T19:44:36;1.90;;;1.40;;
65009;SDS011;51556;50.002;22.014;2023-04-15T19:47:06;3.40;;;2.00;;
65009;SDS011;51556;50.002;22.014;2023-04-15T19:49:35;5.30;;;2.30;;
65009;SDS011;51556;50.002;22.014;2023-04-15T19:52:01;3.00;;;1.70;;
65009;SDS011;51556;50.002;22.014;2023-04-15T19:54:28;4.40;;;1.80;;
65009;SDS011;51556;50.002;22.014;2023-04-15T19:56:55;3.60;;;1.50;;
65009;SDS011;51556;50.002;22.014;2023-04-15T19:59:20;3.10;;;1.70;;
65009;SDS011;51556;50.002;22.014;2023-04-15T20:01:46;4.40;;;2.30;;
65009;SDS011;51556;50.002;22.014;2023-04-15T20:04:11;4.10;;;2.10;;
65009;SDS011;51556;50.002;22.014;2023-04-15T20:06:36;4.50;;;2.80;;
65009;SDS011;51556;50.002;22.014;2023-04-15T20:09:02;7.00;;;3.90;;
65009;SDS011;51556;50.002;22.014;2023-04-15T20:11:28;10.90;;;4.40;;
65009;SDS011;51556;50.002;22.014;2023-04-15T20:13:54;11.40;;;5.10;;
65009;SDS011;51556;50.002;22.014;2023-04-15T20:16:20;7.30;;;4.10;;
65009;SDS011;51556;50.002;22.014;2023-04-15T20:18:46;12.90;;;5.80;;
65009;SDS011;51556;50.002;22.014;2023-04-15T20:21:11;12.50;;;5.80;;
65009;SDS011;51556;50.002;22.014;2023-04-15T20:23:37;12.60;;;4.60;;
65009;SDS011;51556;50.002;22.014;2023-04-15T20:26:02;6.00;;;3.90;;
65009;SDS011;51556;50.002;22.014;2023-04-15T20:28:28;9.70;;;4.40;;
65009;SDS011;51556;50.002;22.014;2023-04-15T20:30:53;7.60;;;4.10;;
65009;SDS011;51556;50.002;22.014;2023-04-15T20:33:19;7.30;;;3.70;;
65009;SDS011;51556;50.002;22.014;2023-04-15T20:35:46;7.60;;;3.70;;
65009;SDS011;51556;50.002;22.014;2023-04-15T20:38:12;7.00;;;4.40;;
65009;SDS011;51556;50.002;22.014;2023-04-15T20:40:40;7.30;;;4.00;;
65009;SDS011;51556;50.002;22.014;2023-04-15T20:43:06;5.80;;;3.20;;
65009;SDS011;51556;50.002;22.014;2023-04-15T20:45:31;4.50;;;2.00;;
65009;SDS011;51556;50.002;22.014;2023-04-15T20:48:06;3.70;;;2.10;;
65009;SDS011;51556;50.002;22.014;2023-04-15T20:50:31;2.90;;;2.00;;
65009;SDS011;51556;50.002;22.014;2023-04-15T20:52:57;6.70;;;3.30;;
65009;SDS011;51556;50.002;22.014;2023-04-15T20:55:22;6.00;;;3.00;;
65009;SDS011;51556;50.002;22.014;2023-04-15T20:57:48;7.50;;;3.80;;
65009;SDS011;51556;50.002;22.014;2023-04-15T21:00:13;11.30;;;4.30;;
65009;SDS011;51556;50.002;22.014;2023-04-15T21:02:39;7.20;;;4.30;;
65009;SDS011;51556;50.002;22.014;2023-04-15T21:05:05;10.30;;;4.10;;
65009;SDS011;51556;50.002;22.014;2023-04-15T21:07:31;10.10;;;5.20;;
65009;SDS011;51556;50.002;22.014;2023-04-15T21:09:56;14.70;;;9.60;;
65009;SDS011;51556;50.002;22.014;2023-04-15T21:12:22;27.40;;;15.20;;
65009;SDS011;51556;50.002;22.014;2023-04-15T21:14:48;74.10;;;33.60;;
65009;SDS011;51556;50.002;22.014;2023-04-15T21:17:14;13.30;;;7.50;;
65009;SDS011;51556;50.002;22.014;2023-04-15T21:19:40;13.60;;;7.10;;
65009;SDS011;51556;50.002;22.014;2023-04-15T21:22:06;13.70;;;7.60;;
65009;SDS011;51556;50.002;22.014;2023-04-15T21:24:31;12.30;;;6.50;;
65009;SDS011;51556;50.002;22.014;2023-04-15T21:26:57;11.50;;;6.40;;
65009;SDS011;51556;50.002;22.014;2023-04-15T21:29:22;11.30;;;6.20;;
65009;SDS011;51556;50.002;22.014;2023-04-15T21:31:48;14.10;;;6.30;;
65009;SDS011;51556;50.002;22.014;2023-04-15T21:34:15;12.10;;;6.20;;
65009;SDS011;51556;50.002;22.014;2023-04-15T21:36:41;11.00;;;6.30;;
65009;SDS011;51556;50.002;22.014;2023-04-15T21:39:07;11.70;;;7.30;;
65009;SDS011;51556;50.002;22.014;2023-04-15T21:41:32;15.90;;;8.60;;
65009;SDS011;51556;50.002;22.014;2023-04-15T21:43:58;14.90;;;8.60;;
65009;SDS011;51556;50.002;22.014;2023-04-15T21:46:26;15.10;;;8.50;;
65009;SDS011;51556;50.002;22.014;2023-04-15T21:48:52;15.60;;;8.60;;
65009;SDS011;51556;50.002;22.014;2023-04-15T21:51:17;14.40;;;8.60;;
65009;SDS011;51556;50.002;22.014;2023-04-15T21:53:43;16.60;;;10.10;;
65009;SDS011;51556;50.002;22.014;2023-04-15T21:56:08;19.80;;;12.60;;
65009;SDS011;51556;50.002;22.014;2023-04-15T21:58:34;16.70;;;9.90;;
65009;SDS011;51556;50.002;22.014;2023-04-15T22:00:59;19.00;;;11.60;;
65009;SDS011;51556;50.002;22.014;2023-04-15T22:03:28;17.90;;;10.60;;
65009;SDS011;51556;50.002;22.014;2023-04-15T22:05:57;14.40;;;9.30;;
65009;SDS011;51556;50.002;22.014;2023-04-15T22:08:23;14.70;;;9.60;;
65009;SDS011;51556;50.002;22.014;2023-04-15T22:10:48;14.80;;;10.20;;
65009;SDS011;51556;50.002;22.014;2023-04-15T22:13:15;15.40;;;9.40;;
65009;SDS011;51556;50.002;22.014;2023-04-15T22:15:41;15.00;;;9.10;;
65009;SDS011;51556;50.002;22.014;2023-04-15T22:18:06;15.60;;;8.40;;
65009;SDS011;51556;50.002;22.014;2023-04-15T22:20:32;14.40;;;8.90;;
65009;SDS011;51556;50.002;22.014;2023-04-15T22:22:57;19.10;;;11.20;;
65009;SDS011;51556;50.002;22.014;2023-04-15T22:25:22;15.70;;;10.70;;
65009;SDS011;51556;50.002;22.014;2023-04-15T22:27:48;15.60;;;10.00;;
65009;SDS011;51556;50.002;22.014;2023-04-15T22:30:13;17.10;;;9.80;;
65009;SDS011;51556;50.002;22.014;2023-04-15T22:32:39;15.40;;;9.80;;
65009;SDS011;51556;50.002;22.014;2023-04-15T22:35:05;16.90;;;10.00;;
65009;SDS011;51556;50.002;22.014;2023-04-15T22:37:31;19.50;;;11.10;;
65009;SDS011;51556;50.002;22.014;2023-04-15T22:39:57;19.80;;;11.30;;
65009;SDS011;51556;50.002;22.014;2023-04-15T22:42:23;15.80;;;10.60;;
65009;SDS011;51556;50.002;22.014;2023-04-15T22:44:48;18.40;;;10.90;;
65009;SDS011;51556;50.002;22.014;2023-04-15T22:47:14;15.20;;;9.80;;
65009;SDS011;51556;50.002;22.014;2023-04-15T22:49:40;19.00;;;11.40;;
65009;SDS011;51556;50.002;22.014;2023-04-15T22:52:05;15.80;;;10.00;;
65009;SDS011;51556;50.002;22.014;2023-04-15T22:54:31;17.70;;;10.60;;
65009;SDS011;51556;50.002;22.014;2023-04-15T22:56:56;18.00;;;11.40;;
65009;SDS011;51556;50.002;22.014;2023-04-15T22:59:22;21.80;;;11.70;;
65009;SDS011;51556;50.002;22.014;2023-04-15T23:01:48;22.30;;;12.20;;
65009;SDS011;51556;50.002;22.014;2023-04-15T23:04:13;18.90;;;12.20;;
65009;SDS011;51556;50.002;22.014;2023-04-15T23:06:38;23.90;;;13.80;;
65009;SDS011;51556;50.002;22.014;2023-04-15T23:09:04;22.50;;;12.60;;
65009;SDS011;51556;50.002;22.014;2023-04-15T23:11:30;25.80;;;12.70;;
65009;SDS011;51556;50.002;22.014;2023-04-15T23:13:55;24.10;;;13.60;;
65009;SDS011;51556;50.002;22.014;2023-04-15T23:16:21;39.80;;;21.20;;
65009;SDS011;51556;50.002;22.014;2023-04-15T23:18:47;38.20;;;20.50;;
65009;SDS011;51556;50.002;22.014;2023-04-15T23:21:12;35.10;;;19.40;;
65009;SDS011;51556;50.002;22.014;2023-04-15T23:23:37;35.40;;;19.80;;
65009;SDS011;51556;50.002;22.014;2023-04-15T23:26:03;30.70;;;16.50;;
65009;SDS011;51556;50.002;22.014;2023-04-15T23:28:29;24.80;;;14.10;;
65009;SDS011;51556;50.002;22.014;2023-04-15T23:30:55;22.90;;;11.70;;
65009;SDS011;51556;50.002;22.014;2023-04-15T23:33:21;18.30;;;10.90;;
65009;SDS011;51556;50.002;22.014;2023-04-15T23:35:47;15.30;;;9.60;;
65009;SDS011;51556;50.002;22.014;2023-04-15T23:38:12;19.80;;;10.60;;
65009;SDS011;51556;50.002;22.014;2023-04-15T23:40:37;17.60;;;9.60;;
65009;SDS011;51556;50.002;22.014;2023-04-15T23:43:03;15.30;;;8.60;;
65009;SDS011;51556;50.002;22.014;2023-04-15T23:45:28;15.80;;;8.30;;
65009;SDS011;51556;50.002;22.014;2023-04-15T23:47:54;15.40;;;8.10;;
65009;SDS011;51556;50.002;22.014;2023-04-15T23:50:19;9.40;;;6.00;;
65009;SDS011;51556;50.002;22.014;2023-04-15T23:52:45;9.80;;;5.20;;
65009;SDS011;51556;50.002;22.014;2023-04-15T23:55:10;4.40;;;3.10;;
65009;SDS011;51556;50.002;22.014;2023-04-15T23:57:36;6.80;;;3.30;;
